sensor_id;sensor_type;location;lat;lon;timestamp;P1;durP1;ratioP1;P2;durP2;ratioP2
25175;SDS011;13135;55.166;61.286;2022-08-02T00:02:28;8.60;;;6.37;;
25175;SDS011;13135;55.166;61.286;2022-08-02T00:05:15;12.20;;;6.90;;
25175;SDS011;13135;55.166;61.286;2022-08-02T00:07:57;11.20;;;7.50;;
25175;SDS011;13135;55.166;61.286;2022-08-02T00:10:41;11.17;;;8.03;;
25175;SDS011;13135;55.166;61.286;2022-08-02T00:13:26;14.93;;;9.87;;
25175;SDS011;13135;55.166;61.286;2022-08-02T00:16:11;17.17;;;10.40;;
25175;SDS011;13135;55.166;61.286;2022-08-02T00:18:58;14.15;;;9.68;;
25175;SDS011;13135;55.166;61.286;2022-08-02T00:21:42;18.10;;;10.37;;
25175;SDS011;13135;55.166;61.286;2022-08-02T00:24:27;16.50;;;9.70;;
25175;SDS011;13135;55.166;61.286;2022-08-02T00:27:12;18.23;;;10.10;;
25175;SDS011;13135;55.166;61.286;2022-08-02T00:29:57;21.87;;;11.00;;
25175;SDS011;13135;55.166;61.286;2022-08-02T00:32:42;27.65;;;12.77;;
25175;SDS011;13135;55.166;61.286;2022-08-02T00:35:27;25.77;;;13.80;;
25175;SDS011;13135;55.166;61.286;2022-08-02T00:38:12;16.13;;;10.67;;
25175;SDS011;13135;55.166;61.286;2022-08-02T00:40:56;19.77;;;10.27;;
25175;SDS011;13135;55.166;61.286;2022-08-02T00:43:40;18.70;;;10.87;;
25175;SDS011;13135;55.166;61.286;2022-08-02T00:46:25;17.70;;;9.93;;
25175;SDS011;13135;55.166;61.286;2022-08-02T00:49:13;15.27;;;9.30;;
25175;SDS011;13135;55.166;61.286;2022-08-02T00:51:58;14.73;;;7.75;;
25175;SDS011;13135;55.166;61.286;2022-08-02T00:54:43;17.97;;;9.90;;
25175;SDS011;13135;55.166;61.286;2022-08-02T00:57:27;17.67;;;9.43;;
25175;SDS011;13135;55.166;61.286;2022-08-02T01:00:14;19.67;;;10.40;;
25175;SDS011;13135;55.166;61.286;2022-08-02T01:02:59;19.40;;;10.63;;
25175;SDS011;13135;55.166;61.286;2022-08-02T01:05:44;17.53;;;10.60;;
25175;SDS011;13135;55.166;61.286;2022-08-02T01:08:29;16.97;;;10.50;;
25175;SDS011;13135;55.166;61.286;2022-08-02T01:11:14;17.77;;;10.60;;
25175;SDS011;13135;55.166;61.286;2022-08-02T01:14:01;20.40;;;8.93;;
25175;SDS011;13135;55.166;61.286;2022-08-02T01:16:47;20.03;;;9.97;;
25175;SDS011;13135;55.166;61.286;2022-08-02T01:19:35;16.97;;;8.83;;
25175;SDS011;13135;55.166;61.286;2022-08-02T01:28:34;10.07;;;5.77;;
25175;SDS011;13135;55.166;61.286;2022-08-02T01:31:26;9.57;;;5.00;;
25175;SDS011;13135;55.166;61.286;2022-08-02T01:34:12;7.57;;;5.17;;
25175;SDS011;13135;55.166;61.286;2022-08-02T01:37:02;10.50;;;5.17;;
25175;SDS011;13135;55.166;61.286;2022-08-02T01:39:54;10.67;;;5.20;;
25175;SDS011;13135;55.166;61.286;2022-08-02T01:42:44;10.10;;;5.80;;
25175;SDS011;13135;55.166;61.286;2022-08-02T01:45:26;18.67;;;7.28;;
25175;SDS011;13135;55.166;61.286;2022-08-02T01:48:10;16.10;;;8.60;;
25175;SDS011;13135;55.166;61.286;2022-08-02T01:50:56;16.97;;;10.30;;
25175;SDS011;13135;55.166;61.286;2022-08-02T01:53:39;25.27;;;14.70;;
25175;SDS011;13135;55.166;61.286;2022-08-02T01:56:23;27.20;;;15.43;;
25175;SDS011;13135;55.166;61.286;2022-08-02T01:59:10;28.37;;;15.47;;
25175;SDS011;13135;55.166;61.286;2022-08-02T02:01:54;23.67;;;13.53;;
25175;SDS011;13135;55.166;61.286;2022-08-02T02:04:38;18.83;;;10.37;;
25175;SDS011;13135;55.166;61.286;2022-08-02T02:07:23;17.13;;;10.07;;
25175;SDS011;13135;55.166;61.286;2022-08-02T02:10:08;13.40;;;7.47;;
25175;SDS011;13135;55.166;61.286;2022-08-02T02:12:53;14.10;;;8.00;;
25175;SDS011;13135;55.166;61.286;2022-08-02T02:15:39;9.60;;;6.93;;
25175;SDS011;13135;55.166;61.286;2022-08-02T02:18:24;11.77;;;7.03;;
25175;SDS011;13135;55.166;61.286;2022-08-02T02:21:10;12.37;;;7.70;;
25175;SDS011;13135;55.166;61.286;2022-08-02T02:23:55;12.68;;;7.40;;
25175;SDS011;13135;55.166;61.286;2022-08-02T02:26:37;18.05;;;10.95;;
25175;SDS011;13135;55.166;61.286;2022-08-02T02:29:23;23.45;;;14.50;;
25175;SDS011;13135;55.166;61.286;2022-08-02T02:32:06;23.93;;;13.53;;
25175;SDS011;13135;55.166;61.286;2022-08-02T02:34:50;19.80;;;10.93;;
25175;SDS011;13135;55.166;61.286;2022-08-02T02:37:35;24.20;;;13.27;;
25175;SDS011;13135;55.166;61.286;2022-08-02T02:40:19;21.42;;;12.60;;
25175;SDS011;13135;55.166;61.286;2022-08-02T02:43:05;26.40;;;14.80;;
25175;SDS011;13135;55.166;61.286;2022-08-02T02:45:50;24.23;;;13.70;;
25175;SDS011;13135;55.166;61.286;2022-08-02T02:48:35;25.87;;;14.80;;
25175;SDS011;13135;55.166;61.286;2022-08-02T02:51:19;23.48;;;14.87;;
25175;SDS011;13135;55.166;61.286;2022-08-02T02:54:04;16.42;;;10.93;;
25175;SDS011;13135;55.166;61.286;2022-08-02T02:56:52;10.57;;;8.68;;
25175;SDS011;13135;55.166;61.286;2022-08-02T02:59:36;9.88;;;8.40;;
25175;SDS011;13135;55.166;61.286;2022-08-02T03:02:20;11.07;;;7.65;;
25175;SDS011;13135;55.166;61.286;2022-08-02T03:05:05;6.57;;;5.90;;
25175;SDS011;13135;55.166;61.286;2022-08-02T03:07:59;7.82;;;5.87;;
25175;SDS011;13135;55.166;61.286;2022-08-02T03:10:45;6.05;;;4.95;;
25175;SDS011;13135;55.166;61.286;2022-08-02T03:13:30;5.75;;;4.18;;
25175;SDS011;13135;55.166;61.286;2022-08-02T03:16:11;3.80;;;3.50;;
25175;SDS011;13135;55.166;61.286;2022-08-02T03:18:56;6.23;;;4.77;;
25175;SDS011;13135;55.166;61.286;2022-08-02T03:21:41;7.90;;;6.03;;
25175;SDS011;13135;55.166;61.286;2022-08-02T03:24:26;7.23;;;5.57;;
25175;SDS011;13135;55.166;61.286;2022-08-02T03:27:11;9.77;;;5.80;;
25175;SDS011;13135;55.166;61.286;2022-08-02T03:29:56;12.45;;;8.85;;
25175;SDS011;13135;55.166;61.286;2022-08-02T03:32:42;10.23;;;6.40;;
25175;SDS011;13135;55.166;61.286;2022-08-02T03:35:26;7.87;;;5.80;;
25175;SDS011;13135;55.166;61.286;2022-08-02T03:38:11;8.47;;;6.00;;
25175;SDS011;13135;55.166;61.286;2022-08-02T03:40:59;9.67;;;6.10;;
25175;SDS011;13135;55.166;61.286;2022-08-02T03:43:44;8.00;;;6.30;;
25175;SDS011;13135;55.166;61.286;2022-08-02T03:46:29;10.60;;;6.97;;
25175;SDS011;13135;55.166;61.286;2022-08-02T03:49:14;10.93;;;7.63;;
25175;SDS011;13135;55.166;61.286;2022-08-02T03:51:58;9.43;;;7.00;;
25175;SDS011;13135;55.166;61.286;2022-08-02T03:54:40;10.70;;;7.07;;
25175;SDS011;13135;55.166;61.286;2022-08-02T03:57:26;9.27;;;7.13;;
25175;SDS011;13135;55.166;61.286;2022-08-02T04:00:11;9.63;;;7.77;;
25175;SDS011;13135;55.166;61.286;2022-08-02T04:02:57;7.87;;;6.70;;
25175;SDS011;13135;55.166;61.286;2022-08-02T04:05:41;10.60;;;7.57;;
25175;SDS011;13135;55.166;61.286;2022-08-02T04:08:26;12.13;;;8.70;;
25175;SDS011;13135;55.166;61.286;2022-08-02T04:11:11;10.00;;;6.43;;
25175;SDS011;13135;55.166;61.286;2022-08-02T04:13:57;6.97;;;5.57;;
25175;SDS011;13135;55.166;61.286;2022-08-02T04:16:52;6.78;;;5.50;;
25175;SDS011;13135;55.166;61.286;2022-08-02T04:19:39;6.50;;;5.47;;
25175;SDS011;13135;55.166;61.286;2022-08-02T04:22:26;10.23;;;6.37;;
25175;SDS011;13135;55.166;61.286;2022-08-02T04:25:10;6.73;;;5.67;;
25175;SDS011;13135;55.166;61.286;2022-08-02T04:27:54;8.60;;;5.90;;
25175;SDS011;13135;55.166;61.286;2022-08-02T04:30:36;5.77;;;5.10;;
25175;SDS011;13135;55.166;61.286;2022-08-02T04:33:20;4.77;;;4.27;;
25175;SDS011;13135;55.166;61.286;2022-08-02T04:36:06;5.13;;;4.50;;
25175;SDS011;13135;55.166;61.286;2022-08-02T04:38:52;5.93;;;4.13;;
25175;SDS011;13135;55.166;61.286;2022-08-02T04:41:38;4.53;;;4.13;;
25175;SDS011;13135;55.166;61.286;2022-08-02T04:44:23;5.77;;;4.30;;
25175;SDS011;13135;55.166;61.286;2022-08-02T04:47:08;6.43;;;4.63;;
25175;SDS011;13135;55.166;61.286;2022-08-02T04:49:53;4.47;;;4.00;;
25175;SDS011;13135;55.166;61.286;2022-08-02T04:52:38;6.37;;;4.22;;
25175;SDS011;13135;55.166;61.286;2022-08-02T04:55:23;6.00;;;4.80;;
25175;SDS011;13135;55.166;61.286;2022-08-02T04:58:07;8.15;;;5.00;;
25175;SDS011;13135;55.166;61.286;2022-08-02T05:00:52;5.25;;;4.53;;
25175;SDS011;13135;55.166;61.286;2022-08-02T05:03:36;6.37;;;5.00;;
25175;SDS011;13135;55.166;61.286;2022-08-02T05:06:20;7.33;;;5.03;;
25175;SDS011;13135;55.166;61.286;2022-08-02T05:09:02;5.57;;;4.73;;
25175;SDS011;13135;55.166;61.286;2022-08-02T05:11:45;5.97;;;4.63;;
25175;SDS011;13135;55.166;61.286;2022-08-02T05:14:30;6.77;;;4.63;;
25175;SDS011;13135;55.166;61.286;2022-08-02T05:17:14;9.15;;;5.12;;
25175;SDS011;13135;55.166;61.286;2022-08-02T05:19:59;14.38;;;5.82;;
25175;SDS011;13135;55.166;61.286;2022-08-02T05:22:43;10.93;;;5.60;;
25175;SDS011;13135;55.166;61.286;2022-08-02T05:25:28;12.90;;;8.20;;
25175;SDS011;13135;55.166;61.286;2022-08-02T05:28:13;12.57;;;7.62;;
25175;SDS011;13135;55.166;61.286;2022-08-02T05:30:58;13.10;;;6.83;;
25175;SDS011;13135;55.166;61.286;2022-08-02T05:33:42;11.73;;;5.70;;
25175;SDS011;13135;55.166;61.286;2022-08-02T05:36:27;6.55;;;5.07;;
25175;SDS011;13135;55.166;61.286;2022-08-02T05:39:12;11.15;;;6.15;;
25175;SDS011;13135;55.166;61.286;2022-08-02T05:41:57;11.55;;;6.93;;
25175;SDS011;13135;55.166;61.286;2022-08-02T05:44:42;9.38;;;5.57;;
25175;SDS011;13135;55.166;61.286;2022-08-02T05:47:27;8.27;;;3.80;;
25175;SDS011;13135;55.166;61.286;2022-08-02T05:50:12;9.13;;;3.90;;
25175;SDS011;13135;55.166;61.286;2022-08-02T05:53:03;14.68;;;5.15;;
25175;SDS011;13135;55.166;61.286;2022-08-02T05:56:08;11.02;;;4.87;;
25175;SDS011;13135;55.166;61.286;2022-08-02T05:59:06;13.45;;;5.03;;
25175;SDS011;13135;55.166;61.286;2022-08-02T06:01:48;13.82;;;4.93;;
25175;SDS011;13135;55.166;61.286;2022-08-02T06:04:43;6.78;;;3.85;;
25175;SDS011;13135;55.166;61.286;2022-08-02T06:07:26;5.62;;;3.65;;
25175;SDS011;13135;55.166;61.286;2022-08-02T06:10:13;10.85;;;3.83;;
25175;SDS011;13135;55.166;61.286;2022-08-02T06:13:09;7.00;;;3.20;;
25175;SDS011;13135;55.166;61.286;2022-08-02T06:15:54;6.28;;;3.10;;
25175;SDS011;13135;55.166;61.286;2022-08-02T06:18:39;9.95;;;3.00;;
25175;SDS011;13135;55.166;61.286;2022-08-02T06:21:25;10.30;;;2.92;;
25175;SDS011;13135;55.166;61.286;2022-08-02T06:24:10;6.20;;;2.55;;
25175;SDS011;13135;55.166;61.286;2022-08-02T06:26:53;7.05;;;2.90;;
25175;SDS011;13135;55.166;61.286;2022-08-02T06:29:38;6.80;;;2.80;;
25175;SDS011;13135;55.166;61.286;2022-08-02T06:32:23;13.15;;;4.28;;
25175;SDS011;13135;55.166;61.286;2022-08-02T06:35:08;9.60;;;2.92;;
25175;SDS011;13135;55.166;61.286;2022-08-02T06:37:58;7.18;;;2.45;;
25175;SDS011;13135;55.166;61.286;2022-08-02T06:40:45;6.50;;;2.15;;
25175;SDS011;13135;55.166;61.286;2022-08-02T06:43:40;6.05;;;2.05;;
25175;SDS011;13135;55.166;61.286;2022-08-02T06:46:27;5.70;;;2.50;;
25175;SDS011;13135;55.166;61.286;2022-08-02T06:49:12;7.12;;;2.53;;
25175;SDS011;13135;55.166;61.286;2022-08-02T06:51:56;3.95;;;2.40;;
25175;SDS011;13135;55.166;61.286;2022-08-02T06:54:40;5.90;;;2.30;;
25175;SDS011;13135;55.166;61.286;2022-08-02T06:57:26;4.80;;;2.00;;
25175;SDS011;13135;55.166;61.286;2022-08-02T07:00:10;3.15;;;1.80;;
25175;SDS011;13135;55.166;61.286;2022-08-02T07:02:56;3.95;;;1.85;;
25175;SDS011;13135;55.166;61.286;2022-08-02T07:05:40;4.85;;;1.95;;
25175;SDS011;13135;55.166;61.286;2022-08-02T07:08:26;4.50;;;1.87;;
25175;SDS011;13135;55.166;61.286;2022-08-02T07:11:11;9.18;;;2.08;;
25175;SDS011;13135;55.166;61.286;2022-08-02T07:13:56;3.17;;;2.10;;
25175;SDS011;13135;55.166;61.286;2022-08-02T07:16:43;4.05;;;1.70;;
25175;SDS011;13135;55.166;61.286;2022-08-02T07:19:28;6.15;;;1.90;;
25175;SDS011;13135;55.166;61.286;2022-08-02T07:22:13;5.30;;;1.55;;
25175;SDS011;13135;55.166;61.286;2022-08-02T07:24:58;5.35;;;2.80;;
25175;SDS011;13135;55.166;61.286;2022-08-02T07:27:43;9.73;;;2.33;;
25175;SDS011;13135;55.166;61.286;2022-08-02T07:30:28;4.03;;;1.92;;
25175;SDS011;13135;55.166;61.286;2022-08-02T07:33:13;3.75;;;1.98;;
25175;SDS011;13135;55.166;61.286;2022-08-02T07:35:58;2.42;;;1.55;;
25175;SDS011;13135;55.166;61.286;2022-08-02T07:38:44;2.65;;;1.48;;
25175;SDS011;13135;55.166;61.286;2022-08-02T07:41:28;3.75;;;1.80;;
25175;SDS011;13135;55.166;61.286;2022-08-02T07:44:16;4.72;;;2.50;;
25175;SDS011;13135;55.166;61.286;2022-08-02T07:47:01;6.40;;;2.65;;
25175;SDS011;13135;55.166;61.286;2022-08-02T07:49:49;9.95;;;2.10;;
25175;SDS011;13135;55.166;61.286;2022-08-02T07:52:33;7.75;;;2.28;;
25175;SDS011;13135;55.166;61.286;2022-08-02T07:55:20;4.78;;;2.10;;
25175;SDS011;13135;55.166;61.286;2022-08-02T07:58:05;5.20;;;2.00;;
25175;SDS011;13135;55.166;61.286;2022-08-02T08:00:50;4.82;;;1.95;;
25175;SDS011;13135;55.166;61.286;2022-08-02T08:03:34;7.50;;;1.90;;
25175;SDS011;13135;55.166;61.286;2022-08-02T08:06:18;6.12;;;1.65;;
25175;SDS011;13135;55.166;61.286;2022-08-02T08:09:03;5.40;;;1.90;;
25175;SDS011;13135;55.166;61.286;2022-08-02T08:11:48;3.85;;;1.90;;
25175;SDS011;13135;55.166;61.286;2022-08-02T08:14:33;4.57;;;2.10;;
25175;SDS011;13135;55.166;61.286;2022-08-02T08:17:20;3.10;;;1.67;;
25175;SDS011;13135;55.166;61.286;2022-08-02T08:20:05;3.95;;;1.75;;
25175;SDS011;13135;55.166;61.286;2022-08-02T08:22:50;6.55;;;2.20;;
25175;SDS011;13135;55.166;61.286;2022-08-02T08:25:35;3.50;;;1.90;;
25175;SDS011;13135;55.166;61.286;2022-08-02T08:28:19;4.90;;;2.28;;
25175;SDS011;13135;55.166;61.286;2022-08-02T08:31:04;5.70;;;1.70;;
25175;SDS011;13135;55.166;61.286;2022-08-02T08:33:49;3.53;;;1.83;;
25175;SDS011;13135;55.166;61.286;2022-08-02T08:36:34;5.68;;;2.00;;
25175;SDS011;13135;55.166;61.286;2022-08-02T08:39:19;3.72;;;2.00;;
25175;SDS011;13135;55.166;61.286;2022-08-02T08:42:05;2.40;;;2.15;;
25175;SDS011;13135;55.166;61.286;2022-08-02T08:44:50;5.43;;;2.40;;
25175;SDS011;13135;55.166;61.286;2022-08-02T08:47:36;5.35;;;2.37;;
25175;SDS011;13135;55.166;61.286;2022-08-02T08:50:23;4.25;;;2.17;;
25175;SDS011;13135;55.166;61.286;2022-08-02T08:53:06;2.55;;;1.80;;
25175;SDS011;13135;55.166;61.286;2022-08-02T08:55:52;3.85;;;2.12;;
25175;SDS011;13135;55.166;61.286;2022-08-02T08:58:37;3.37;;;2.22;;
25175;SDS011;13135;55.166;61.286;2022-08-02T09:01:23;2.72;;;1.80;;
25175;SDS011;13135;55.166;61.286;2022-08-02T09:04:08;3.62;;;2.28;;
25175;SDS011;13135;55.166;61.286;2022-08-02T09:06:52;4.00;;;2.42;;
25175;SDS011;13135;55.166;61.286;2022-08-02T09:09:36;7.32;;;2.92;;
25175;SDS011;13135;55.166;61.286;2022-08-02T09:12:21;5.60;;;2.15;;
25175;SDS011;13135;55.166;61.286;2022-08-02T09:15:06;2.90;;;2.25;;
25175;SDS011;13135;55.166;61.286;2022-08-02T09:17:49;4.25;;;2.42;;
25175;SDS011;13135;55.166;61.286;2022-08-02T09:20:35;5.20;;;2.20;;
25175;SDS011;13135;55.166;61.286;2022-08-02T09:23:19;5.07;;;2.20;;
25175;SDS011;13135;55.166;61.286;2022-08-02T09:26:04;7.32;;;2.85;;
25175;SDS011;13135;55.166;61.286;2022-08-02T09:28:50;4.90;;;2.20;;
25175;SDS011;13135;55.166;61.286;2022-08-02T09:31:42;5.43;;;2.53;;
25175;SDS011;13135;55.166;61.286;2022-08-02T09:34:23;5.28;;;2.70;;
25175;SDS011;13135;55.166;61.286;2022-08-02T09:50:37;5.40;;;2.17;;
25175;SDS011;13135;55.166;61.286;2022-08-02T09:53:25;3.15;;;1.80;;
25175;SDS011;13135;55.166;61.286;2022-08-02T09:56:10;4.25;;;2.10;;
25175;SDS011;13135;55.166;61.286;2022-08-02T09:58:56;6.25;;;2.50;;
25175;SDS011;13135;55.166;61.286;2022-08-02T10:01:47;2.72;;;2.20;;
25175;SDS011;13135;55.166;61.286;2022-08-02T10:36:22;6.32;;;2.90;;
25175;SDS011;13135;55.166;61.286;2022-08-02T10:39:07;5.15;;;2.90;;
25175;SDS011;13135;55.166;61.286;2022-08-02T10:41:51;4.65;;;2.30;;
25175;SDS011;13135;55.166;61.286;2022-08-02T10:44:36;4.62;;;2.55;;
25175;SDS011;13135;55.166;61.286;2022-08-02T10:47:22;5.35;;;2.62;;
25175;SDS011;13135;55.166;61.286;2022-08-02T10:50:07;6.95;;;3.80;;
25175;SDS011;13135;55.166;61.286;2022-08-02T10:52:51;5.57;;;2.58;;
25175;SDS011;13135;55.166;61.286;2022-08-02T10:55:44;7.10;;;2.33;;
25175;SDS011;13135;55.166;61.286;2022-08-02T10:58:29;4.85;;;2.62;;
25175;SDS011;13135;55.166;61.286;2022-08-02T11:01:30;8.55;;;2.80;;
25175;SDS011;13135;55.166;61.286;2022-08-02T11:04:14;9.77;;;3.05;;
25175;SDS011;13135;55.166;61.286;2022-08-02T11:07:05;4.75;;;2.37;;
25175;SDS011;13135;55.166;61.286;2022-08-02T11:09:50;5.87;;;2.47;;
25175;SDS011;13135;55.166;61.286;2022-08-02T11:12:37;5.68;;;2.35;;
25175;SDS011;13135;55.166;61.286;2022-08-02T11:15:20;2.65;;;2.20;;
25175;SDS011;13135;55.166;61.286;2022-08-02T11:19:00;4.70;;;2.28;;
25175;SDS011;13135;55.166;61.286;2022-08-02T11:42:32;5.55;;;2.50;;
25175;SDS011;13135;55.166;61.286;2022-08-02T11:45:23;5.50;;;2.50;;
25175;SDS011;13135;55.166;61.286;2022-08-02T11:48:01;2.45;;;2.00;;
25175;SDS011;13135;55.166;61.286;2022-08-02T11:50:47;5.75;;;3.03;;
25175;SDS011;13135;55.166;61.286;2022-08-02T11:53:41;7.93;;;5.95;;
25175;SDS011;13135;55.166;61.286;2022-08-02T11:56:33;7.32;;;3.58;;
25175;SDS011;13135;55.166;61.286;2022-08-02T11:59:17;9.82;;;3.08;;
25175;SDS011;13135;55.166;61.286;2022-08-02T12:02:03;5.72;;;2.72;;
25175;SDS011;13135;55.166;61.286;2022-08-02T12:07:41;6.87;;;2.42;;
25175;SDS011;13135;55.166;61.286;2022-08-02T12:10:26;4.72;;;1.80;;
25175;SDS011;13135;55.166;61.286;2022-08-02T12:13:11;3.37;;;2.12;;
25175;SDS011;13135;55.166;61.286;2022-08-02T12:15:56;4.00;;;2.85;;
25175;SDS011;13135;55.166;61.286;2022-08-02T12:18:46;6.55;;;2.85;;
25175;SDS011;13135;55.166;61.286;2022-08-02T12:21:25;3.97;;;2.42;;
25175;SDS011;13135;55.166;61.286;2022-08-02T12:24:10;8.90;;;2.60;;
25175;SDS011;13135;55.166;61.286;2022-08-02T12:26:55;3.78;;;1.55;;
25175;SDS011;13135;55.166;61.286;2022-08-02T12:29:41;2.30;;;1.52;;
25175;SDS011;13135;55.166;61.286;2022-08-02T12:32:27;3.62;;;1.40;;
25175;SDS011;13135;55.166;61.286;2022-08-02T12:35:11;1.40;;;1.30;;
25175;SDS011;13135;55.166;61.286;2022-08-02T12:37:57;4.43;;;1.75;;
25175;SDS011;13135;55.166;61.286;2022-08-02T12:40:42;2.53;;;1.33;;
25175;SDS011;13135;55.166;61.286;2022-08-02T12:43:27;2.10;;;1.50;;
25175;SDS011;13135;55.166;61.286;2022-08-02T12:46:15;5.37;;;3.15;;
25175;SDS011;13135;55.166;61.286;2022-08-02T12:48:59;4.40;;;1.55;;
25175;SDS011;13135;55.166;61.286;2022-08-02T12:51:45;3.60;;;1.90;;
25175;SDS011;13135;55.166;61.286;2022-08-02T12:54:34;3.90;;;1.40;;
25175;SDS011;13135;55.166;61.286;2022-08-02T12:57:16;4.85;;;1.95;;
25175;SDS011;13135;55.166;61.286;2022-08-02T13:00:03;5.82;;;1.58;;
25175;SDS011;13135;55.166;61.286;2022-08-02T13:02:49;3.75;;;1.58;;
25175;SDS011;13135;55.166;61.286;2022-08-02T13:05:34;5.65;;;2.08;;
25175;SDS011;13135;55.166;61.286;2022-08-02T13:08:18;6.40;;;1.77;;
25175;SDS011;13135;55.166;61.286;2022-08-02T13:11:05;5.57;;;1.90;;
25175;SDS011;13135;55.166;61.286;2022-08-02T13:13:50;6.35;;;2.00;;
25175;SDS011;13135;55.166;61.286;2022-08-02T13:16:35;3.45;;;1.40;;
25175;SDS011;13135;55.166;61.286;2022-08-02T13:19:20;5.30;;;1.52;;
25175;SDS011;13135;55.166;61.286;2022-08-02T13:22:05;7.30;;;2.03;;
25175;SDS011;13135;55.166;61.286;2022-08-02T13:24:49;7.12;;;1.80;;
25175;SDS011;13135;55.166;61.286;2022-08-02T13:27:32;4.00;;;1.77;;
25175;SDS011;13135;55.166;61.286;2022-08-02T13:30:15;5.07;;;1.77;;
25175;SDS011;13135;55.166;61.286;2022-08-02T13:33:04;5.22;;;1.50;;
25175;SDS011;13135;55.166;61.286;2022-08-02T13:35:49;2.05;;;1.30;;
25175;SDS011;13135;55.166;61.286;2022-08-02T13:38:33;2.83;;;1.20;;
25175;SDS011;13135;55.166;61.286;2022-08-02T13:41:17;5.00;;;1.52;;
25175;SDS011;13135;55.166;61.286;2022-08-02T13:44:03;6.40;;;1.65;;
25175;SDS011;13135;55.166;61.286;2022-08-02T13:46:50;6.25;;;1.67;;
25175;SDS011;13135;55.166;61.286;2022-08-02T13:49:34;4.32;;;1.80;;
25175;SDS011;13135;55.166;61.286;2022-08-02T13:52:19;5.75;;;1.50;;
25175;SDS011;13135;55.166;61.286;2022-08-02T13:55:04;6.28;;;1.77;;
25175;SDS011;13135;55.166;61.286;2022-08-02T13:57:47;5.75;;;1.80;;
25175;SDS011;13135;55.166;61.286;2022-08-02T14:00:34;3.33;;;1.35;;
25175;SDS011;13135;55.166;61.286;2022-08-02T14:03:18;6.37;;;1.35;;
25175;SDS011;13135;55.166;61.286;2022-08-02T14:06:02;3.67;;;1.40;;
25175;SDS011;13135;55.166;61.286;2022-08-02T14:08:48;5.22;;;1.30;;
25175;SDS011;13135;55.166;61.286;2022-08-02T14:11:34;4.05;;;1.40;;
25175;SDS011;13135;55.166;61.286;2022-08-02T14:14:19;3.42;;;1.17;;
25175;SDS011;13135;55.166;61.286;2022-08-02T14:17:04;7.50;;;1.55;;
25175;SDS011;13135;55.166;61.286;2022-08-02T14:19:51;6.25;;;1.95;;
25175;SDS011;13135;55.166;61.286;2022-08-02T14:22:42;4.90;;;1.48;;
25175;SDS011;13135;55.166;61.286;2022-08-02T14:25:28;4.55;;;1.70;;
25175;SDS011;13135;55.166;61.286;2022-08-02T14:28:13;4.25;;;1.70;;
25175;SDS011;13135;55.166;61.286;2022-08-02T14:30:58;6.05;;;1.62;;
25175;SDS011;13135;55.166;61.286;2022-08-02T14:33:43;4.18;;;1.50;;
25175;SDS011;13135;55.166;61.286;2022-08-02T14:36:28;1.77;;;1.20;;
25175;SDS011;13135;55.166;61.286;2022-08-02T14:39:12;5.55;;;1.50;;
25175;SDS011;13135;55.166;61.286;2022-08-02T14:41:59;1.80;;;1.58;;
25175;SDS011;13135;55.166;61.286;2022-08-02T14:44:46;2.55;;;1.17;;
25175;SDS011;13135;55.166;61.286;2022-08-02T14:47:30;3.15;;;1.42;;
25175;SDS011;13135;55.166;61.286;2022-08-02T14:50:15;1.27;;;0.98;;
25175;SDS011;13135;55.166;61.286;2022-08-02T14:53:00;3.17;;;1.35;;
25175;SDS011;13135;55.166;61.286;2022-08-02T14:55:45;1.77;;;1.67;;
25175;SDS011;13135;55.166;61.286;2022-08-02T14:58:30;4.10;;;1.42;;
25175;SDS011;13135;55.166;61.286;2022-08-02T15:01:14;2.85;;;1.40;;
25175;SDS011;13135;55.166;61.286;2022-08-02T15:03:59;2.85;;;1.15;;
25175;SDS011;13135;55.166;61.286;2022-08-02T15:06:43;5.05;;;1.48;;
25175;SDS011;13135;55.166;61.286;2022-08-02T15:09:28;3.08;;;1.30;;
25175;SDS011;13135;55.166;61.286;2022-08-02T15:12:12;6.70;;;1.55;;
25175;SDS011;13135;55.166;61.286;2022-08-02T15:14:56;3.03;;;1.70;;
25175;SDS011;13135;55.166;61.286;2022-08-02T15:17:41;4.68;;;1.48;;
25175;SDS011;13135;55.166;61.286;2022-08-02T15:20:27;6.03;;;1.70;;
25175;SDS011;13135;55.166;61.286;2022-08-02T15:23:13;10.02;;;2.62;;
25175;SDS011;13135;55.166;61.286;2022-08-02T15:25:57;15.25;;;2.15;;
25175;SDS011;13135;55.166;61.286;2022-08-02T15:28:43;2.17;;;1.70;;
25175;SDS011;13135;55.166;61.286;2022-08-02T15:31:28;5.12;;;2.25;;
25175;SDS011;13135;55.166;61.286;2022-08-02T15:34:12;6.25;;;1.92;;
25175;SDS011;13135;55.166;61.286;2022-08-02T15:36:57;4.35;;;2.05;;
25175;SDS011;13135;55.166;61.286;2022-08-02T15:39:46;3.15;;;2.05;;
25175;SDS011;13135;55.166;61.286;2022-08-02T15:42:31;3.90;;;1.87;;
25175;SDS011;13135;55.166;61.286;2022-08-02T15:45:16;6.20;;;2.65;;
25175;SDS011;13135;55.166;61.286;2022-08-02T15:48:01;6.12;;;3.08;;
25175;SDS011;13135;55.166;61.286;2022-08-02T15:50:46;6.93;;;4.35;;
25175;SDS011;13135;55.166;61.286;2022-08-02T15:53:32;11.07;;;6.10;;
25175;SDS011;13135;55.166;61.286;2022-08-02T15:56:17;12.45;;;7.82;;
25175;SDS011;13135;55.166;61.286;2022-08-02T15:59:02;16.70;;;7.35;;
25175;SDS011;13135;55.166;61.286;2022-08-02T16:01:47;14.27;;;7.43;;
25175;SDS011;13135;55.166;61.286;2022-08-02T16:04:31;13.25;;;6.75;;
25175;SDS011;13135;55.166;61.286;2022-08-02T16:07:16;13.10;;;6.78;;
25175;SDS011;13135;55.166;61.286;2022-08-02T16:10:01;12.73;;;6.65;;
25175;SDS011;13135;55.166;61.286;2022-08-02T16:12:46;17.40;;;6.65;;
25175;SDS011;13135;55.166;61.286;2022-08-02T16:15:31;12.10;;;5.60;;
25175;SDS011;13135;55.166;61.286;2022-08-02T16:18:16;7.18;;;4.57;;
25175;SDS011;13135;55.166;61.286;2022-08-02T16:21:01;9.30;;;4.65;;
25175;SDS011;13135;55.166;61.286;2022-08-02T16:23:45;9.35;;;4.18;;
25175;SDS011;13135;55.166;61.286;2022-08-02T16:26:30;10.52;;;4.72;;
25175;SDS011;13135;55.166;61.286;2022-08-02T16:29:15;14.07;;;5.65;;
25175;SDS011;13135;55.166;61.286;2022-08-02T16:32:00;17.92;;;7.03;;
25175;SDS011;13135;55.166;61.286;2022-08-02T16:34:46;18.30;;;8.32;;
25175;SDS011;13135;55.166;61.286;2022-08-02T16:37:32;20.60;;;9.57;;
25175;SDS011;13135;55.166;61.286;2022-08-02T16:40:16;26.83;;;11.15;;
25175;SDS011;13135;55.166;61.286;2022-08-02T16:43:00;27.30;;;12.57;;
25175;SDS011;13135;55.166;61.286;2022-08-02T16:45:46;29.15;;;12.82;;
25175;SDS011;13135;55.166;61.286;2022-08-02T16:48:31;29.05;;;12.90;;
25175;SDS011;13135;55.166;61.286;2022-08-02T16:51:18;28.77;;;12.98;;
25175;SDS011;13135;55.166;61.286;2022-08-02T16:54:03;21.70;;;11.40;;
25175;SDS011;13135;55.166;61.286;2022-08-02T16:56:53;23.67;;;11.68;;
25175;SDS011;13135;55.166;61.286;2022-08-02T16:59:40;28.35;;;14.38;;
25175;SDS011;13135;55.166;61.286;2022-08-02T17:02:27;29.17;;;14.82;;
25175;SDS011;13135;55.166;61.286;2022-08-02T17:05:14;33.03;;;15.05;;
25175;SDS011;13135;55.166;61.286;2022-08-02T17:07:59;25.35;;;13.98;;
25175;SDS011;13135;55.166;61.286;2022-08-02T17:10:43;28.38;;;13.25;;
25175;SDS011;13135;55.166;61.286;2022-08-02T17:13:29;31.50;;;14.15;;
25175;SDS011;13135;55.166;61.286;2022-08-02T17:16:15;21.90;;;11.43;;
25175;SDS011;13135;55.166;61.286;2022-08-02T17:19:02;20.88;;;12.05;;
25175;SDS011;13135;55.166;61.286;2022-08-02T17:21:47;18.42;;;8.63;;
25175;SDS011;13135;55.166;61.286;2022-08-02T17:24:31;19.08;;;8.32;;
25175;SDS011;13135;55.166;61.286;2022-08-02T17:27:15;18.87;;;8.52;;
25175;SDS011;13135;55.166;61.286;2022-08-02T17:30:00;18.42;;;8.43;;
25175;SDS011;13135;55.166;61.286;2022-08-02T17:32:45;16.37;;;7.07;;